createdAt,value
2023-01-27T00:01:39.233Z,14.68
2023-01-27T00:04:08.674Z,15.43
2023-01-27T00:07:07.948Z,22.08
2023-01-27T00:09:37.333Z,19.00
2023-01-27T00:12:25.867Z,24.67
2023-01-27T00:14:55.432Z,23.95
2023-01-27T00:17:24.770Z,19.73
2023-01-27T00:19:53.812Z,14.15
2023-01-27T00:26:30.220Z,15.93
2023-01-27T00:29:00.542Z,13.95
2023-01-27T00:44:14.824Z,12.20
2023-01-27T00:53:44.147Z,16.73
2023-01-27T00:56:13.993Z,12.13
2023-01-27T00:59:11.365Z,13.57
2023-01-27T01:01:40.909Z,11.02
2023-01-27T01:04:10.093Z,11.77
2023-01-27T01:06:39.583Z,10.40
2023-01-27T01:09:08.827Z,15.18
2023-01-27T01:11:38.236Z,11.10
2023-01-27T01:14:07.859Z,9.48
2023-01-27T01:16:39.057Z,11.13
2023-01-27T01:19:08.151Z,11.13
2023-01-27T01:21:40.869Z,12.13
2023-01-27T01:24:11.199Z,11.23
2023-01-27T01:26:43.743Z,10.32
2023-01-27T01:29:13.279Z,9.85
2023-01-27T01:31:44.151Z,8.88
2023-01-27T01:34:13.605Z,8.23
2023-01-27T01:36:43.513Z,9.30
2023-01-27T01:39:12.993Z,9.70
2023-01-27T01:41:43.185Z,10.02
2023-01-27T02:32:09.690Z,11.70
2023-01-27T03:24:57.108Z,16.50
2023-01-27T03:27:29.074Z,18.55
2023-01-27T03:30:49.631Z,17.42
2023-01-27T03:33:30.058Z,19.02
2023-01-27T03:37:01.308Z,17.60
2023-01-27T03:39:50.178Z,16.65
2023-01-27T03:46:20.287Z,17.02
2023-01-27T03:48:54.116Z,17.48
2023-01-27T03:51:27.803Z,17.52
2023-01-27T03:54:21.854Z,15.75
2023-01-27T03:56:51.379Z,14.77
2023-01-27T03:59:22.384Z,19.35
2023-01-27T04:01:51.796Z,22.77
2023-01-27T04:04:38.343Z,16.23
2023-01-27T04:07:07.880Z,16.85
2023-01-27T04:09:38.378Z,18.58
2023-01-27T04:12:07.960Z,17.13
2023-01-27T04:14:39.554Z,18.83
2023-01-27T04:17:12.806Z,19.05
2023-01-27T04:19:42.310Z,18.88
2023-01-27T04:22:12.752Z,20.33
2023-01-27T04:24:41.867Z,20.30
2023-01-27T04:27:13.320Z,20.52
2023-01-27T04:29:44.374Z,23.08
2023-01-27T04:32:15.409Z,19.25
2023-01-27T04:34:44.847Z,19.90
2023-01-27T04:37:14.210Z,19.70
2023-01-27T04:39:45.989Z,18.70
2023-01-27T04:42:15.965Z,17.65
2023-01-27T04:44:47.172Z,18.58
2023-01-27T04:47:16.517Z,21.33
2023-01-27T04:49:45.643Z,20.80
2023-01-27T04:52:14.865Z,19.15
2023-01-27T04:54:44.164Z,22.08
2023-01-27T04:57:14.030Z,19.63
2023-01-27T04:59:43.439Z,19.08
2023-01-27T05:02:15.166Z,21.02
2023-01-27T05:30:21.168Z,21.38
2023-01-27T05:36:02.457Z,20.75
2023-01-27T05:38:31.923Z,20.88
2023-01-27T05:41:42.083Z,20.48
2023-01-27T05:44:14.265Z,19.20
2023-01-27T05:49:54.763Z,21.05
2023-01-27T05:52:23.748Z,18.00
2023-01-27T05:54:52.896Z,21.42
2023-01-27T06:00:46.309Z,21.08
2023-01-27T06:03:15.655Z,21.83
2023-01-27T06:15:04.265Z,17.02
2023-01-27T06:17:58.823Z,18.73
2023-01-27T06:39:57.627Z,17.80
2023-01-27T06:51:55.864Z,20.83
2023-01-27T06:55:51.566Z,18.70
2023-01-27T06:58:36.587Z,19.00
2023-01-27T07:01:56.116Z,18.27
2023-01-27T07:09:05.272Z,22.95
2023-01-27T07:11:39.405Z,20.20
2023-01-27T07:14:39.297Z,18.58
2023-01-27T07:19:05.669Z,21.00
2023-01-27T07:21:38.690Z,20.48
2023-01-27T07:24:34.459Z,21.38
2023-01-27T07:27:07.550Z,20.05
2023-01-27T07:29:40.276Z,23.85
2023-01-27T07:32:09.887Z,23.20
2023-01-27T07:34:39.556Z,19.70
2023-01-27T07:37:11.916Z,21.63
2023-01-27T07:39:43.234Z,21.80
2023-01-27T07:42:14.629Z,24.95
2023-01-27T07:45:35.829Z,23.58
2023-01-27T08:40:51.408Z,25.50
2023-01-27T08:43:52.695Z,18.90
2023-01-27T08:46:27.634Z,19.13
2023-01-27T08:50:37.571Z,19.13
2023-01-27T08:54:36.622Z,15.68
2023-01-27T09:49:05.316Z,14.52
2023-01-27T09:56:05.527Z,12.98
2023-01-27T10:25:04.635Z,14.15
2023-01-27T10:27:38.353Z,11.03
2023-01-27T15:44:13.543Z,23.42
2023-01-27T15:46:49.046Z,26.77
2023-01-27T15:49:23.498Z,24.92
2023-01-27T15:52:32.447Z,20.05
2023-01-27T15:55:08.145Z,23.95
2023-01-27T15:59:17.596Z,26.85
2023-01-27T16:09:43.653Z,25.65
2023-01-27T16:12:36.622Z,21.90
2023-01-27T16:15:23.910Z,27.38
2023-01-27T16:18:06.999Z,27.65
2023-01-27T16:21:13.603Z,32.83
2023-01-27T16:24:19.968Z,31.60
2023-01-27T16:34:43.001Z,30.13
2023-01-27T16:37:26.868Z,31.45
2023-01-27T17:29:53.574Z,29.80
2023-01-27T17:32:28.030Z,26.38
2023-01-27T17:34:59.743Z,26.35
2023-01-27T17:37:32.926Z,25.08
2023-01-27T17:40:06.012Z,26.05
2023-01-27T17:42:39.406Z,26.27
2023-01-27T17:49:12.245Z,32.00
2023-01-27T17:54:47.393Z,28.25
2023-01-27T17:57:21.424Z,27.80
2023-01-27T17:59:59.365Z,29.52
2023-01-27T18:02:35.217Z,31.15
2023-01-27T19:12:17.731Z,29.57
2023-01-27T19:18:50.016Z,24.95
2023-01-27T19:21:20.396Z,32.42
2023-01-27T19:24:41.712Z,32.38
2023-01-27T19:28:06.146Z,33.95
2023-01-27T19:38:21.963Z,33.78
2023-01-27T19:41:02.902Z,34.00
2023-01-27T19:44:27.983Z,37.92
2023-01-27T19:50:21.201Z,37.20
2023-01-27T19:52:54.757Z,34.55
2023-01-27T19:55:28.044Z,37.38
2023-01-27T19:58:25.581Z,30.83
2023-01-27T20:01:02.661Z,40.13
2023-01-27T20:04:27.121Z,33.00
2023-01-27T20:07:01.184Z,31.95
2023-01-27T20:12:41.576Z,33.35
2023-01-27T20:15:37.105Z,35.33
2023-01-27T20:18:09.914Z,32.13
2023-01-27T20:20:44.854Z,35.78
2023-01-27T20:23:23.376Z,33.67
2023-01-27T20:25:59.040Z,36.47
2023-01-27T20:31:36.885Z,35.75
2023-01-27T20:34:12.686Z,36.17
2023-01-27T20:37:19.212Z,34.67
2023-01-27T20:40:02.087Z,34.42
2023-01-27T20:46:36.630Z,34.78
2023-01-27T20:49:09.823Z,37.45
2023-01-27T21:01:15.324Z,29.80
2023-01-27T21:04:01.065Z,31.48
2023-01-27T21:06:40.759Z,31.50
2023-01-27T21:09:14.206Z,30.75
2023-01-27T21:11:46.227Z,34.75
2023-01-27T21:14:20.005Z,32.47
2023-01-27T21:16:51.163Z,29.70
2023-01-27T21:19:23.317Z,29.40
2023-01-27T21:21:54.833Z,30.05
2023-01-27T21:24:26.575Z,26.35
2023-01-27T21:26:57.434Z,35.80
2023-01-27T21:29:29.995Z,33.88
2023-01-27T21:32:00.879Z,30.20
2023-01-27T21:34:34.616Z,37.55
2023-01-27T21:37:04.930Z,25.58
2023-01-27T21:39:34.646Z,34.05
2023-01-27T21:42:22.705Z,34.10
2023-01-27T21:48:05.532Z,29.90
2023-01-27T21:50:39.724Z,33.92
2023-01-27T21:53:12.808Z,31.95
2023-01-27T21:55:42.928Z,31.55
2023-01-27T21:58:14.523Z,30.65
2023-01-27T22:00:45.393Z,27.42
2023-01-27T22:03:15.309Z,34.05
2023-01-27T22:05:45.161Z,38.70
2023-01-27T22:08:15.008Z,35.58
2023-01-27T22:10:45.260Z,30.30
2023-01-27T22:13:14.584Z,32.53
2023-01-27T22:15:50.991Z,30.08
2023-01-27T22:18:20.796Z,28.98
2023-01-27T22:20:50.219Z,33.30
2023-01-27T22:23:20.788Z,28.73
2023-01-27T22:25:51.695Z,34.00
2023-01-27T22:28:23.614Z,34.90
2023-01-27T22:30:55.987Z,32.80
2023-01-27T22:33:27.144Z,30.80
2023-01-27T22:36:05.034Z,32.47
2023-01-27T22:38:39.391Z,33.22
2023-01-27T22:41:09.153Z,27.83
2023-01-27T22:43:41.117Z,37.25
2023-01-27T22:46:15.321Z,29.35
2023-01-27T22:48:50.984Z,19.02
2023-01-27T22:51:23.745Z,35.28
2023-01-27T22:53:58.438Z,29.50
2023-01-27T22:57:23.162Z,32.83
2023-01-27T22:59:52.334Z,34.72
2023-01-27T23:05:40.342Z,38.70
2023-01-27T23:08:11.220Z,32.10
2023-01-27T23:10:40.370Z,37.35
2023-01-27T23:13:11.485Z,26.52
2023-01-27T23:25:58.350Z,13.75
2023-01-27T23:28:29.543Z,30.67
2023-01-27T23:30:58.961Z,28.70
2023-01-27T23:33:30.295Z,26.35
2023-01-27T23:36:00.111Z,30.48
2023-01-27T23:38:33.014Z,37.30
2023-01-27T23:41:24.454Z,29.90
2023-01-27T23:43:55.670Z,35.67
2023-01-27T23:46:28.501Z,33.75
2023-01-27T23:49:01.474Z,34.67
2023-01-27T23:51:30.936Z,35.08
2023-01-27T23:54:02.302Z,39.17
2023-01-27T23:56:36.929Z,36.35
2023-01-27T23:59:09.308Z,41.53
